Time;durP1;ratioP1;P1;durP2;ratioP2;P2;SDS_P1;SDS_P2;PMS_P1;PMS_P2;Temp;Humidity;BMP_temperature;BMP_pressure;BME280_temperature;BME280_humidity;BME280_pressure;Samples;Min_cycle;Max_cycle;Signal;HPM_P1;HPM_P2
2022/12/11 00:00:44;;;;;;;124.32;43.67;;;;;;;-1.05;100.00;100995.97;5066863;28;20025;-66
2022/12/11 00:03:10;;;;;;;119.93;43.80;;;;;;;-1.07;100.00;101001.06;5063897;28;20047;-67
2022/12/11 00:05:39;;;;;;;118.32;41.88;;;;;;;-1.04;100.00;101002.06;5066287;28;20017;-67
2022/12/11 00:08:05;;;;;;;122.68;43.42;;;;;;;-1.02;100.00;100995.25;5064649;28;20349;-66
2022/12/11 00:10:30;;;;;;;115.50;42.95;;;;;;;-1.03;100.00;100990.84;5064136;28;20036;-67
2022/12/11 00:12:55;;;;;;;112.05;40.00;;;;;;;-1.01;100.00;100997.03;5065496;28;20379;-68
2022/12/11 00:15:21;;;;;;;112.28;41.70;;;;;;;-1.02;100.00;100988.38;5062614;28;20116;-66
2022/12/11 00:17:46;;;;;;;114.53;41.53;;;;;;;-1.03;100.00;100986.56;5066884;28;20021;-67
2022/12/11 00:20:11;;;;;;;107.63;40.53;;;;;;;-1.00;100.00;100988.44;5062063;28;20029;-67
2022/12/11 00:22:37;;;;;;;111.20;40.53;;;;;;;-0.99;100.00;100987.63;5064508;28;20033;-68
2022/12/11 00:25:03;;;;;;;107.88;41.50;;;;;;;-0.98;100.00;100990.28;5064595;28;20417;-68
2022/12/11 00:27:28;;;;;;;104.03;40.03;;;;;;;-0.98;100.00;100992.00;5064609;28;20029;-67
2022/12/11 00:29:53;;;;;;;105.85;40.45;;;;;;;-0.98;100.00;100989.41;5064573;28;20082;-67
2022/12/11 00:32:19;;;;;;;104.95;40.65;;;;;;;-0.95;100.00;100993.03;5062226;28;20025;-67
2022/12/11 00:34:44;;;;;;;104.18;39.50;;;;;;;-0.95;100.00;100994.75;5066401;28;20388;-67
2022/12/11 00:37:09;;;;;;;102.13;39.85;;;;;;;-0.93;100.00;100987.97;5063154;28;20088;-73
2022/12/11 00:39:36;;;;;;;103.63;38.53;;;;;;;-0.96;100.00;100986.09;5064361;28;20078;-68
2022/12/11 00:42:02;;;;;;;102.38;40.03;;;;;;;-0.94;100.00;100986.19;5063931;28;20048;-68
2022/12/11 00:44:27;;;;;;;94.43;40.22;;;;;;;-0.92;100.00;100987.13;5064279;28;20074;-69
2022/12/11 00:46:52;;;;;;;104.20;40.22;;;;;;;-0.94;100.00;100986.19;5065350;28;20115;-68
2022/12/11 00:49:17;;;;;;;101.28;38.97;;;;;;;-0.91;100.00;100987.22;5062998;28;20036;-70
2022/12/11 00:51:43;;;;;;;96.97;39.78;;;;;;;-0.92;100.00;100984.53;5066340;28;20360;-66
2022/12/11 00:54:08;;;;;;;99.63;39.45;;;;;;;-0.92;100.00;100985.44;5063261;28;20028;-72
2022/12/11 00:56:33;;;;;;;97.50;38.10;;;;;;;-0.91;100.00;100986.34;5064990;28;20108;-70
2022/12/11 00:58:59;;;;;;;94.78;39.30;;;;;;;-0.90;100.00;100981.22;5064481;28;20060;-70
2022/12/11 01:01:24;;;;;;;93.72;38.38;;;;;;;-0.89;100.00;100984.69;5063187;28;20060;-67
2022/12/11 01:03:51;;;;;;;92.32;39.08;;;;;;;-0.89;100.00;100988.22;5064807;28;20108;-71
2022/12/11 01:06:19;;;;;;;90.32;37.60;;;;;;;-0.87;100.00;100985.69;5062184;28;20159;-70
2022/12/11 01:08:45;;;;;;;91.45;37.50;;;;;;;-0.88;100.00;100981.31;5058466;28;20029;-69
2022/12/11 01:11:13;;;;;;;90.10;38.28;;;;;;;-0.87;100.00;100977.91;5065426;28;20025;-71
2022/12/11 01:13:39;;;;;;;89.45;38.13;;;;;;;-0.86;100.00;100979.66;5062866;28;20031;-71
2022/12/11 01:16:10;;;;;;;86.80;38.20;;;;;;;-0.85;100.00;100976.25;5064321;28;20094;-68
2022/12/11 01:18:36;;;;;;;87.63;36.97;;;;;;;-0.84;100.00;100980.66;5062891;28;20037;-70
2022/12/11 01:21:10;;;;;;;82.43;37.13;;;;;;;-0.81;100.00;100986.00;5064034;28;20036;-71
2022/12/11 01:23:36;;;;;;;83.20;37.25;;;;;;;-0.80;100.00;100989.47;5063093;28;20059;-67
2022/12/11 01:26:10;;;;;;;77.13;37.08;;;;;;;-0.80;100.00;100982.59;5063744;28;20053;-67
2022/12/11 01:28:36;;;;;;;78.45;36.03;;;;;;;-0.77;100.00;101000.94;5062805;28;20057;-67
2022/12/11 01:31:01;;;;;;;73.28;34.80;;;;;;;-0.72;100.00;100995.97;5063846;28;20033;-68
2022/12/11 01:33:27;;;;;;;73.22;34.92;;;;;;;-0.75;100.00;100993.22;5063954;28;20112;-67
2022/12/11 01:35:53;;;;;;;71.90;35.03;;;;;;;-0.72;100.00;100988.19;5062325;28;20057;-67
2022/12/11 01:38:18;;;;;;;77.35;35.30;;;;;;;-0.74;100.00;100990.72;5065244;28;20071;-66
2022/12/11 01:40:48;;;;;;;71.93;34.78;;;;;;;-0.75;100.00;100990.63;5060204;28;20575;-67
2022/12/11 01:43:14;;;;;;;69.90;34.22;;;;;;;-0.71;100.00;100985.66;5056289;28;20029;-67
2022/12/11 01:45:43;;;;;;;67.45;33.30;;;;;;;-0.74;100.00;100985.50;5064720;28;20078;-67
2022/12/11 01:48:13;;;;;;;69.35;34.00;;;;;;;-0.74;100.00;100974.25;5061999;28;20025;-66
2022/12/11 01:50:43;;;;;;;69.57;34.03;;;;;;;-0.75;100.00;100978.53;5064214;28;20392;-67
2022/12/11 01:53:14;;;;;;;66.80;33.40;;;;;;;-0.72;100.00;100975.22;5062042;28;20055;-65
2022/12/11 01:55:40;;;;;;;66.95;34.25;;;;;;;-0.73;100.00;100976.00;5064507;28;20028;-65
2022/12/11 01:58:07;;;;;;;67.53;33.08;;;;;;;-0.76;100.00;100966.38;5061428;28;20066;-65
2022/12/11 02:00:32;;;;;;;66.72;34.55;;;;;;;-0.76;100.00;100973.25;5063255;28;20025;-67
2022/12/11 02:02:57;;;;;;;69.35;33.95;;;;;;;-0.76;100.00;100966.38;5063430;28;20033;-67
2022/12/11 02:05:23;;;;;;;65.65;33.25;;;;;;;-0.74;100.00;100975.13;5061826;28;20477;-71
2022/12/11 02:07:58;;;;;;;62.70;33.30;;;;;;;-0.76;100.00;100971.56;5064863;28;20043;-72
2022/12/11 02:10:42;;;;;;;64.72;32.63;;;;;;;-0.75;100.00;100973.34;5062228;28;20029;-70
2022/12/11 02:13:44;;;;;;;67.03;33.83;;;;;;;-0.68;100.00;100964.19;5062043;28;20699;-71
2022/12/11 02:16:20;;;;;;;62.03;33.47;;;;;;;-0.72;100.00;100976.09;5063470;28;20123;-68
2022/12/11 02:18:53;;;;;;;61.60;32.10;;;;;;;-0.74;100.00;100967.34;5057431;28;20104;-70
2022/12/11 02:21:31;;;;;;;63.47;32.75;;;;;;;-0.67;100.00;100968.56;5057921;28;20123;-68
2022/12/11 02:24:05;;;;;;;62.65;33.28;;;;;;;-0.73;100.00;100971.72;5063448;28;20029;-67
2022/12/11 02:26:55;;;;;;;63.85;33.53;;;;;;;-0.70;100.00;100973.56;5062659;28;20499;-68
2022/12/11 02:29:34;;;;;;;64.18;32.78;;;;;;;-0.71;100.00;100970.09;5058620;28;20033;-71
2022/12/11 02:32:23;;;;;;;60.00;32.88;;;;;;;-0.68;100.00;100960.66;5062797;28;20047;-71
2022/12/11 02:34:54;;;;;;;62.47;32.85;;;;;;;-0.66;100.00;100966.84;5057466;28;20056;-71
2022/12/11 02:37:23;;;;;;;59.88;32.10;;;;;;;-0.68;100.00;100958.06;5064043;28;20395;-70
2022/12/11 02:39:53;;;;;;;64.50;32.42;;;;;;;-0.68;100.00;100960.66;5061047;28;20028;-70
2022/12/11 02:42:21;;;;;;;60.17;31.40;;;;;;;-0.67;100.00;100971.16;5062557;28;20051;-69
2022/12/11 02:44:49;;;;;;;60.17;31.70;;;;;;;-0.66;100.00;100965.13;5060837;28;20033;-71
2022/12/11 02:47:17;;;;;;;56.03;31.40;;;;;;;-0.66;100.00;100966.84;5057063;28;20029;-68
2022/12/11 02:49:47;;;;;;;59.17;31.17;;;;;;;-0.66;100.00;100966.84;5063896;28;20043;-70
2022/12/11 02:52:17;;;;;;;57.78;30.73;;;;;;;-0.68;100.00;100965.84;5060899;28;20056;-70
2022/12/11 02:54:43;;;;;;;54.97;30.48;;;;;;;-0.65;100.00;100964.31;5063852;28;20025;-72
2022/12/11 02:57:15;;;;;;;55.42;29.88;;;;;;;-0.64;100.00;100970.41;5061536;28;20124;-70
2022/12/11 02:59:43;;;;;;;53.30;29.60;;;;;;;-0.66;100.00;100964.25;5063658;28;20051;-70
2022/12/11 03:02:11;;;;;;;52.10;28.27;;;;;;;-0.59;100.00;100968.94;5059921;28;20491;-69
2022/12/11 03:04:37;;;;;;;52.80;29.50;;;;;;;-0.67;100.00;100960.78;5063222;28;20037;-70
2022/12/11 03:07:12;;;;;;;49.40;28.20;;;;;;;-0.67;100.00;100957.25;5062151;28;20113;-70
2022/12/11 03:09:42;;;;;;;49.65;27.55;;;;;;;-0.68;100.00;100958.97;5063546;28;20029;-72
2022/12/11 03:12:10;;;;;;;46.20;25.75;;;;;;;-0.68;100.00;100948.59;5061585;28;20042;-74
2022/12/11 03:14:39;;;;;;;47.78;27.35;;;;;;;-0.70;100.00;100945.00;5062927;28;20107;-72
2022/12/11 03:17:17;;;;;;;45.08;24.63;;;;;;;-0.67;100.00;100949.47;5061767;28;20116;-70
2022/12/11 03:19:57;;;;;;;43.63;25.02;;;;;;;-0.70;100.00;100934.63;5063778;28;20108;-72
2022/12/11 03:22:44;;;;;;;42.40;23.58;;;;;;;-0.71;100.00;100941.53;5058030;28;20029;-72
2022/12/11 03:25:19;;;;;;;39.65;22.63;;;;;;;-0.73;100.00;100950.97;5060934;28;20035;-72
2022/12/11 03:28:05;;;;;;;37.72;21.70;;;;;;;-0.75;100.00;100947.38;5057309;28;20025;-72
2022/12/11 03:30:34;;;;;;;37.47;21.50;;;;;;;-0.76;100.00;100945.63;5063893;28;20033;-66
2022/12/11 03:33:06;;;;;;;38.95;22.48;;;;;;;-0.77;100.00;100942.91;5066217;28;20054;-67
2022/12/11 03:35:39;;;;;;;39.25;21.88;;;;;;;-0.75;100.00;100944.78;5065755;28;20029;-67
2022/12/11 03:38:06;;;;;;;;;;;;;;;-0.74;100.00;100938.78;5065720;28;20055;-67
2022/12/11 03:40:35;;;;;;;38.78;22.00;;;;;;;-0.76;100.00;100945.63;5065656;28;20015;-68
2022/12/11 03:43:01;;;;;;;38.03;21.58;;;;;;;-0.78;100.00;100939.44;5065858;28;20047;-66
2022/12/11 03:45:29;;;;;;;37.00;21.75;;;;;;;-0.75;100.00;100941.31;5064870;28;20065;-66
2022/12/11 03:47:56;;;;;;;37.42;21.40;;;;;;;-0.79;100.00;100940.22;5066483;28;20099;-66
2022/12/11 03:50:25;;;;;;;37.75;22.35;;;;;;;-0.79;100.00;100932.44;5064255;28;20082;-67
2022/12/11 03:52:52;;;;;;;36.90;20.90;;;;;;;-0.79;100.00;100935.03;5066758;28;20082;-65
2022/12/11 03:55:20;;;;;;;35.60;20.92;;;;;;;-0.79;100.00;100936.75;5063633;28;20025;-65
2022/12/11 03:57:46;;;;;;;38.30;21.88;;;;;;;-0.79;100.00;100929.84;5059929;28;20029;-65
2022/12/11 04:00:15;;;;;;;37.75;22.08;;;;;;;-0.80;100.00;100917.69;5066554;28;20028;-67
2022/12/11 04:02:41;;;;;;;38.13;22.35;;;;;;;-0.79;100.00;100918.59;5064066;28;20033;-65
2022/12/11 04:05:08;;;;;;;37.83;21.95;;;;;;;-0.78;100.00;100916.06;5066064;28;20033;-66
2022/12/11 04:07:34;;;;;;;36.75;21.17;;;;;;;-0.79;100.00;100922.06;5064811;28;20040;-65
2022/12/11 04:10:00;;;;;;;36.90;21.40;;;;;;;-0.76;100.00;100921.34;5064765;28;20025;-66
2022/12/11 04:12:25;;;;;;;37.15;21.40;;;;;;;-0.78;100.00;100916.06;5066200;28;20467;-66
2022/12/11 04:15:03;;;;;;;37.05;21.30;;;;;;;-0.76;100.00;100927.44;5063438;28;20083;-65
2022/12/11 04:25:43;;;;;;;34.85;20.40;;;;;;;-0.76;100.00;100918.75;5063604;28;20043;-67
2022/12/11 04:28:08;;;;;;;36.17;21.25;;;;;;;-0.76;100.00;100916.13;5066089;28;20388;-70
2022/12/11 04:30:34;;;;;;;37.33;20.88;;;;;;;-0.77;100.00;100911.75;5064952;28;20028;-65
2022/12/11 04:32:59;;;;;;;36.63;20.52;;;;;;;-0.77;100.00;100915.25;5044407;28;20057;-67
2022/12/11 04:35:24;;;;;;;36.00;20.27;;;;;;;-0.79;100.00;100916.00;5064606;28;20075;-67
2022/12/11 04:37:51;;;;;;;35.75;20.40;;;;;;;-0.79;100.00;100916.88;5062903;28;20487;-66
2022/12/11 04:40:18;;;;;;;35.88;21.48;;;;;;;-0.77;100.00;100914.34;5066250;28;20390;-67
2022/12/11 04:42:43;;;;;;;36.15;21.15;;;;;;;-0.78;100.00;100916.06;5062818;28;20049;-66
2022/12/11 04:45:10;;;;;;;35.92;20.95;;;;;;;-0.76;100.00;100913.53;5065399;28;20045;-67
2022/12/11 04:47:37;;;;;;;35.70;20.15;;;;;;;-0.79;100.00;100903.88;5063939;28;20480;-69
2022/12/11 04:50:05;;;;;;;36.00;20.75;;;;;;;-0.77;100.00;100910.06;5064642;28;20021;-68
2022/12/11 04:52:30;;;;;;;35.88;21.00;;;;;;;-0.76;100.00;100909.25;5064409;28;20051;-73
2022/12/11 04:54:56;;;;;;;36.38;21.40;;;;;;;-0.76;100.00;100913.53;5063381;28;20021;-71
2022/12/11 04:57:21;;;;;;;37.20;21.58;;;;;;;-0.75;100.00;100916.22;5065921;28;20382;-71
2022/12/11 04:59:47;;;;;;;35.80;21.48;;;;;;;-0.75;100.00;100911.03;5062456;28;20468;-72
2022/12/11 05:02:13;;;;;;;36.35;21.23;;;;;;;-0.74;100.00;100905.03;5065375;28;20430;-73
2022/12/11 05:04:38;;;;;;;36.10;21.13;;;;;;;-0.77;100.00;100904.88;5062153;28;20039;-73
2022/12/11 05:07:04;;;;;;;36.90;21.15;;;;;;;-0.75;100.00;100907.53;5064262;28;20052;-73
2022/12/11 05:09:29;;;;;;;36.28;21.02;;;;;;;-0.75;100.00;100899.75;5063246;28;20051;-74
2022/12/11 05:11:54;;;;;;;35.42;20.35;;;;;;;-0.76;100.00;100904.06;5062953;28;20052;-72
2022/12/11 05:14:20;;;;;;;34.03;19.85;;;;;;;-0.79;100.00;100901.28;5065615;28;20035;-74
2022/12/11 05:16:45;;;;;;;34.15;19.90;;;;;;;-0.79;100.00;100898.69;5058287;28;20033;-73
2022/12/11 05:19:11;;;;;;;32.45;18.67;;;;;;;-0.75;100.00;100892.84;5065158;28;20059;-73
2022/12/11 05:21:36;;;;;;;34.15;19.83;;;;;;;-0.74;100.00;100897.25;5063414;28;20029;-73
2022/12/11 05:24:02;;;;;;;34.40;20.27;;;;;;;-0.70;100.00;100900.88;5064021;28;20526;-71
2022/12/11 05:26:28;;;;;;;33.90;19.67;;;;;;;-0.71;100.00;100896.50;5064376;28;20033;-72
2022/12/11 05:28:54;;;;;;;35.78;20.63;;;;;;;-0.71;100.00;100897.38;5062248;28;20036;-72
2022/12/11 05:31:25;;;;;;;37.45;20.98;;;;;;;-0.70;100.00;100893.06;5065772;28;20035;-72
2022/12/11 05:33:51;;;;;;;34.35;19.88;;;;;;;-0.73;100.00;100893.84;5058568;28;20028;-73
2022/12/11 05:36:20;;;;;;;34.58;19.50;;;;;;;-0.71;100.00;100881.81;5065397;28;20146;-72
2022/12/11 05:38:46;;;;;;;33.38;19.60;;;;;;;-0.71;100.00;100892.19;5057554;28;20480;-72
2022/12/11 05:41:15;;;;;;;32.47;18.15;;;;;;;-0.70;100.00;100887.88;5064510;28;20031;-72
2022/12/11 05:43:41;;;;;;;33.17;18.92;;;;;;;-0.69;100.00;100894.00;5062330;28;20036;-70
2022/12/11 05:46:09;;;;;;;31.85;18.20;;;;;;;-0.69;100.00;100894.00;5063770;28;20032;-71
2022/12/11 05:48:36;;;;;;;35.85;19.80;;;;;;;-0.68;100.00;100887.97;5063164;28;20059;-72
2022/12/11 05:51:01;;;;;;;33.15;19.08;;;;;;;-0.71;100.00;100889.59;5062385;28;20174;-72
2022/12/11 05:53:27;;;;;;;34.53;19.67;;;;;;;-0.68;100.00;100896.66;5064120;28;20487;-73
2022/12/11 05:55:53;;;;;;;33.78;19.10;;;;;;;-0.68;100.00;100898.34;5062147;28;20060;-73
2022/12/11 05:58:19;;;;;;;32.58;18.42;;;;;;;-0.68;100.00;100894.06;5064829;28;20169;-70
2022/12/11 06:00:45;;;;;;;31.80;18.73;;;;;;;-0.65;100.00;100901.13;5061360;28;20029;-72
2022/12/11 06:03:10;;;;;;;34.38;18.88;;;;;;;-0.65;100.00;100899.41;5064450;28;20033;-71
2022/12/11 06:05:40;;;;;;;32.55;18.70;;;;;;;-0.65;100.00;100908.91;5062590;28;20036;-73
2022/12/11 06:08:06;;;;;;;33.35;19.63;;;;;;;-0.63;100.00;100900.38;5063288;28;20052;-66
2022/12/11 06:10:31;;;;;;;34.38;19.52;;;;;;;-0.62;100.00;100901.28;5063375;28;20479;-67
2022/12/11 06:12:57;;;;;;;32.22;18.77;;;;;;;-0.63;100.00;100902.97;5062143;28;20078;-66
2022/12/11 06:15:22;;;;;;;32.45;18.80;;;;;;;-0.60;100.00;100897.03;5063292;28;20372;-66
2022/12/11 06:17:47;;;;;;;32.38;18.30;;;;;;;-0.60;100.00;100894.44;5059836;28;20033;-66
2022/12/11 06:20:13;;;;;;;34.08;19.25;;;;;;;-0.59;100.00;100902.31;5064391;28;20122;-66
2022/12/11 06:22:38;;;;;;;32.22;18.33;;;;;;;-0.61;100.00;100893.56;5062094;28;20039;-66
2022/12/11 06:25:04;;;;;;;32.30;18.55;;;;;;;-0.58;100.00;100893.72;5062568;28;20025;-65
2022/12/11 06:27:29;;;;;;;33.20;18.70;;;;;;;-0.57;100.00;100889.41;5063485;28;20036;-65
2022/12/11 06:29:55;;;;;;;32.92;18.38;;;;;;;-0.58;100.00;100893.72;5061653;28;20025;-65
2022/12/11 06:32:21;;;;;;;31.60;17.77;;;;;;;-0.59;100.00;100888.44;5064312;28;20128;-65
2022/12/11 06:34:46;;;;;;;32.88;19.23;;;;;;;-0.58;100.00;100885.03;5056783;28;20096;-65
2022/12/11 06:37:12;;;;;;;32.85;18.88;;;;;;;-0.58;100.00;100892.84;5062868;28;20028;-66
2022/12/11 06:39:37;;;;;;;32.55;18.70;;;;;;;-0.56;100.00;100897.25;5060754;28;20434;-65
2022/12/11 06:42:03;;;;;;;33.05;19.65;;;;;;;-0.55;100.00;100892.97;5060544;28;20419;-65
2022/12/11 06:44:28;;;;;;;33.75;19.73;;;;;;;-0.53;100.00;100902.59;5061901;28;20041;-65
2022/12/11 06:46:54;;;;;;;33.53;18.98;;;;;;;-0.56;100.00;100893.78;5063776;28;20467;-73
2022/12/11 06:49:19;;;;;;;32.10;18.58;;;;;;;-0.54;100.00;100884.34;5060915;28;20488;-73
2022/12/11 06:51:44;;;;;;;32.63;19.08;;;;;;;-0.55;100.00;100887.78;5064093;28;20040;-73
2022/12/11 06:54:10;;;;;;;32.78;19.23;;;;;;;-0.54;100.00;100884.34;5060203;28;20131;-73
2022/12/11 06:56:35;;;;;;;32.05;18.50;;;;;;;-0.54;100.00;100879.16;5062704;28;20064;-73
2022/12/11 06:59:01;;;;;;;32.33;18.50;;;;;;;-0.55;100.00;100885.19;5062740;28;20471;-73
2022/12/11 07:01:27;;;;;;;33.08;19.48;;;;;;;-0.53;100.00;100879.22;5061078;28;20068;-74
2022/12/11 07:03:56;;;;;;;32.58;18.83;;;;;;;-0.51;100.00;100883.63;5066976;28;20028;-73
2022/12/11 07:06:22;;;;;;;31.63;18.63;;;;;;;-0.52;100.00;100893.13;5063360;28;20361;-73
2022/12/11 07:08:48;;;;;;;33.72;19.40;;;;;;;-0.50;100.00;100893.22;5068031;28;20052;-72
2022/12/11 07:11:15;;;;;;;32.05;18.67;;;;;;;-0.53;100.00;100893.94;5065407;28;20068;-73
2022/12/11 07:13:41;;;;;;;34.42;19.60;;;;;;;-0.53;100.00;100891.34;5067061;28;20025;-73
2022/12/11 07:16:09;;;;;;;32.13;19.25;;;;;;;-0.51;100.00;100900.13;5065851;28;20037;-74
2022/12/11 07:18:39;;;;;;;34.30;19.77;;;;;;;-0.55;100.00;100898.19;5066252;28;20025;-68
2022/12/11 07:21:05;;;;;;;33.08;19.20;;;;;;;-0.50;100.00;100907.06;5066010;28;20029;-73
2022/12/11 07:23:32;;;;;;;33.80;19.33;;;;;;;-0.51;100.00;100905.31;5065590;28;20032;-73
2022/12/11 07:25:57;;;;;;;33.35;19.35;;;;;;;-0.52;100.00;100908.72;5067168;28;20016;-73
2022/12/11 07:28:23;;;;;;;33.58;19.33;;;;;;;-0.52;100.00;100911.31;5063070;28;20376;-73
2022/12/11 07:30:49;;;;;;;34.35;19.38;;;;;;;-0.50;100.00;100907.06;5067675;28;20112;-73
2022/12/11 07:33:14;;;;;;;33.58;19.85;;;;;;;-0.51;100.00;100913.09;5064620;28;20029;-72
2022/12/11 07:35:40;;;;;;;34.10;19.35;;;;;;;-0.50;100.00;100917.47;5065292;28;20025;-73
2022/12/11 07:38:05;;;;;;;32.90;18.83;;;;;;;-0.48;100.00;100912.34;5065471;28;20029;-73
2022/12/11 07:40:32;;;;;;;34.05;19.80;;;;;;;-0.48;100.00;100910.66;5065343;28;20021;-73
2022/12/11 07:42:58;;;;;;;33.83;19.48;;;;;;;-0.49;100.00;100913.19;5066336;28;20388;-73
2022/12/11 07:45:25;;;;;;;33.03;18.65;;;;;;;-0.47;100.00;100912.41;5063947;28;20048;-70
2022/12/11 07:47:51;;;;;;;34.10;19.25;;;;;;;-0.48;100.00;100910.66;5067547;28;20032;-73
2022/12/11 07:50:17;;;;;;;35.08;20.10;;;;;;;-0.48;100.00;100909.75;5063827;28;20040;-73
2022/12/11 07:52:42;;;;;;;34.72;19.83;;;;;;;-0.46;100.00;100906.41;5065512;28;20040;-73
2022/12/11 07:55:08;;;;;;;33.72;19.42;;;;;;;-0.46;100.00;100906.41;5065223;28;20101;-74
2022/12/11 07:57:33;;;;;;;34.72;20.50;;;;;;;-0.47;100.00;100912.41;5063981;28;20082;-73
2022/12/11 07:59:58;;;;;;;35.72;20.38;;;;;;;-0.47;100.00;100906.34;5064715;28;20476;-70
2022/12/11 08:02:24;;;;;;;34.95;20.05;;;;;;;-0.47;100.00;100909.81;5063914;28;20033;-73
2022/12/11 08:04:49;;;;;;;35.30;20.23;;;;;;;-0.47;100.00;100909.81;5066995;28;20028;-73
2022/12/11 08:07:14;;;;;;;36.60;21.02;;;;;;;-0.45;100.00;100908.22;5064026;28;20029;-72
2022/12/11 08:09:40;;;;;;;36.30;21.30;;;;;;;-0.43;100.00;100908.28;5065200;28;20495;-73
2022/12/11 08:12:05;;;;;;;35.25;20.33;;;;;;;-0.45;100.00;100913.41;5063706;28;20494;-66
2022/12/11 08:14:31;;;;;;;35.97;20.63;;;;;;;-0.43;100.00;100913.47;5064219;28;20059;-66
2022/12/11 08:16:56;;;;;;;35.25;20.30;;;;;;;-0.43;100.00;100908.28;5066148;28;20036;-65
2022/12/11 08:19:22;;;;;;;34.92;19.83;;;;;;;-0.42;100.00;100915.28;5063327;28;20052;-65
2022/12/11 08:21:47;;;;;;;35.22;20.35;;;;;;;-0.41;100.00;100911.84;5059574;28;20044;-65
2022/12/11 08:24:15;;;;;;;36.50;21.02;;;;;;;-0.44;100.00;100911.69;5065915;28;20029;-65
2022/12/11 08:26:40;;;;;;;36.65;21.67;;;;;;;-0.46;100.00;100909.00;5064063;28;20055;-65
2022/12/11 08:29:06;;;;;;;35.53;21.08;;;;;;;-0.44;100.00;100909.97;5065004;28;20367;-65
2022/12/11 08:31:32;;;;;;;37.63;20.92;;;;;;;-0.44;100.00;100904.78;5065306;28;20032;-65
2022/12/11 08:33:57;;;;;;;37.78;21.27;;;;;;;-0.44;100.00;100917.75;5062489;28;20582;-66
2022/12/11 08:36:23;;;;;;;37.97;21.48;;;;;;;-0.42;100.00;100916.16;5066553;28;20107;-67
2022/12/11 08:38:50;;;;;;;36.85;21.23;;;;;;;-0.43;100.00;100909.16;5062964;28;20056;-65
2022/12/11 08:41:18;;;;;;;35.13;21.42;;;;;;;-0.43;100.00;100921.28;5065567;28;20391;-66
2022/12/11 08:43:44;;;;;;;36.15;21.25;;;;;;;-0.44;100.00;100909.09;5063536;28;20480;-65
2022/12/11 08:46:10;;;;;;;36.97;21.42;;;;;;;-0.42;100.00;100904.88;5064994;28;20040;-65
2022/12/11 08:48:37;;;;;;;35.88;21.48;;;;;;;-0.45;100.00;100908.22;5064280;28;20021;-65
2022/12/11 08:51:05;;;;;;;35.13;20.60;;;;;;;-0.42;100.00;100910.94;5064139;28;20487;-65
2022/12/11 08:53:32;;;;;;;35.28;21.05;;;;;;;-0.41;100.00;100909.25;5064994;28;20025;-67
2022/12/11 08:56:05;;;;;;;35.90;21.00;;;;;;;-0.39;100.00;100908.50;5063212;28;20033;-67
2022/12/11 08:58:30;;;;;;;37.25;21.23;;;;;;;-0.38;100.00;100901.59;5065058;28;20415;-69
2022/12/11 09:00:56;;;;;;;36.53;20.85;;;;;;;-0.34;100.00;100903.53;5062769;28;20025;-67
2022/12/11 09:03:22;;;;;;;35.42;20.73;;;;;;;-0.31;100.00;100902.78;5065907;28;20029;-68
2022/12/11 09:05:47;;;;;;;34.92;20.08;;;;;;;-0.35;100.00;100906.94;5062567;28;20032;-67
2022/12/11 09:08:13;;;;;;;36.65;22.13;;;;;;;-0.34;100.00;100900.94;5065118;28;20032;-68
2022/12/11 09:10:38;;;;;;;36.47;20.70;;;;;;;-0.34;100.00;100902.66;5063597;28;20060;-69
2022/12/11 09:13:03;;;;;;;35.65;20.45;;;;;;;-0.34;100.00;100905.25;5063806;28;20106;-69
2022/12/11 09:15:29;;;;;;;35.03;20.27;;;;;;;-0.33;100.00;100894.06;5064810;28;20032;-69
2022/12/11 09:17:54;;;;;;;35.13;20.45;;;;;;;-0.34;100.00;100907.84;5062232;28;20384;-67
2022/12/11 09:20:19;;;;;;;36.20;20.52;;;;;;;-0.35;100.00;100896.53;5064553;28;20059;-67
2022/12/11 09:22:45;;;;;;;35.70;20.08;;;;;;;-0.38;100.00;100899.00;5062405;28;20036;-68
2022/12/11 09:25:10;;;;;;;37.40;21.25;;;;;;;-0.39;100.00;100898.13;5063456;28;20119;-67
2022/12/11 09:27:36;;;;;;;36.50;20.38;;;;;;;-0.34;100.00;100898.34;5063746;28;20046;-67
2022/12/11 09:30:01;;;;;;;35.17;19.27;;;;;;;-0.40;100.00;100901.50;5063094;28;20111;-68
2022/12/11 09:32:27;;;;;;;36.15;21.27;;;;;;;-0.41;100.00;100896.25;5065003;28;20041;-67
2022/12/11 09:34:52;;;;;;;36.45;21.25;;;;;;;-0.39;100.00;100908.50;5061814;28;20033;-71
2022/12/11 09:37:17;;;;;;;36.00;20.98;;;;;;;-0.45;100.00;100897.81;5063673;28;20021;-73
2022/12/11 09:39:43;;;;;;;38.08;21.90;;;;;;;-0.43;100.00;100898.78;5062575;28;20376;-74
2022/12/11 09:42:35;;;;;;;37.30;21.30;;;;;;;-0.41;100.00;100891.06;5063699;28;20059;-73
2022/12/11 09:45:03;;;;;;;38.47;20.97;;;;;;;-0.44;100.00;100896.97;5060559;28;20032;-72
2022/12/11 09:47:39;;;;;;;37.35;21.38;;;;;;;-0.40;100.00;100890.25;5064404;28;20501;-75
2022/12/11 09:50:14;;;;;;;36.72;21.17;;;;;;;-0.39;100.00;100895.50;5063085;28;20021;-74
2022/12/11 09:52:51;;;;;;;37.33;21.70;;;;;;;-0.38;100.00;100894.72;5062684;28;20024;-73
2022/12/11 09:55:23;;;;;;;36.78;21.50;;;;;;;-0.40;100.00;100898.91;5064951;28;20108;-71
2022/12/11 09:58:10;;;;;;;37.50;22.02;;;;;;;-0.39;100.00;100892.03;5060345;28;20025;-72
2022/12/11 10:01:02;;;;;;;36.33;21.30;;;;;;;-0.31;100.00;100887.22;5061351;28;20352;-74
2022/12/11 10:03:45;;;;;;;36.83;21.30;;;;;;;-0.25;100.00;100877.09;5059488;28;20070;-73
2022/12/11 10:06:29;;;;;;;35.92;20.23;;;;;;;-0.19;100.00;100882.59;5062592;28;20422;-73
2022/12/11 10:09:09;;;;;;;34.28;19.05;;;;;;;-0.16;100.00;100890.56;5058255;28;20025;-73
2022/12/11 10:11:56;;;;;;;36.83;20.65;;;;;;;-0.22;100.00;100887.66;5063548;28;20410;-74
2022/12/11 10:14:52;;;;;;;36.97;21.00;;;;;;;-0.26;100.00;100886.63;5057666;28;20116;-74
2022/12/11 10:17:22;;;;;;;36.08;19.85;;;;;;;-0.24;100.00;100890.19;5064669;28;20123;-74
2022/12/11 10:19:48;;;;;;;35.75;20.35;;;;;;;-0.25;100.00;100888.41;5061467;28;20062;-73
2022/12/11 10:22:31;;;;;;;34.92;19.67;;;;;;;-0.27;100.00;100887.44;5063596;28;20514;-73
2022/12/11 10:24:57;;;;;;;35.45;19.98;;;;;;;-0.24;100.00;100889.28;5058362;28;20033;-74
2022/12/11 10:27:30;;;;;;;36.05;20.00;;;;;;;-0.25;100.00;100890.09;5064685;28;20383;-74
2022/12/11 10:30:26;;;;;;;34.72;19.70;;;;;;;-0.25;100.00;100883.22;5058083;28;20115;-65
2022/12/11 10:32:51;;;;;;;34.78;19.73;;;;;;;-0.29;100.00;100885.56;5039742;28;20178;-65
2022/12/11 10:35:30;;;;;;;35.53;20.58;;;;;;;-0.28;100.00;100892.56;5063956;28;20055;-65
2022/12/11 10:38:09;;;;;;;35.33;19.17;;;;;;;-0.27;100.00;100889.16;5057738;28;20574;-65
2022/12/11 10:40:35;;;;;;;34.90;19.40;;;;;;;-0.21;100.00;100873.84;5062776;28;20060;-66
2022/12/11 10:43:00;;;;;;;34.70;20.15;;;;;;;-0.20;100.00;100880.84;5061568;28;20092;-65
2022/12/11 10:45:26;;;;;;;34.00;19.15;;;;;;;-0.14;100.00;100875.94;5064199;28;20048;-66
2022/12/11 10:48:01;;;;;;;35.17;19.90;;;;;;;-0.09;100.00;100869.22;5060773;28;20056;-66
2022/12/11 10:50:26;;;;;;;35.17;20.08;;;;;;;-0.08;100.00;100870.13;5057995;28;20505;-65
2022/12/11 10:52:52;;;;;;;33.95;19.15;;;;;;;-0.09;100.00;100866.63;5063013;28;20055;-67
2022/12/11 10:55:24;;;;;;;35.20;20.13;;;;;;;-0.08;100.00;100865.81;5060833;28;20083;-65
2022/12/11 10:58:03;;;;;;;36.17;20.45;;;;;;;-0.13;100.00;100864.72;5056678;28;20487;-65
2022/12/11 11:00:33;;;;;;;34.35;19.33;;;;;;;-0.08;100.00;100859.75;5058410;28;20476;-66
2022/12/11 11:03:00;;;;;;;34.47;19.35;;;;;;;-0.03;100.00;100863.44;5063484;28;20024;-66
2022/12/11 11:05:30;;;;;;;34.65;19.48;;;;;;;0.04;100.00;100859.44;5059653;28;20087;-66
2022/12/11 11:08:22;;;;;;;34.97;19.55;;;;;;;0.16;100.00;100862.59;5063689;28;20048;-65
2022/12/11 11:10:55;;;;;;;35.45;20.02;;;;;;;0.06;100.00;100863.88;5062463;28;20372;-66
2022/12/11 11:13:24;;;;;;;34.45;20.25;;;;;;;0.00;100.00;100855.81;5056545;28;20384;-66
2022/12/11 11:15:58;;;;;;;33.88;19.48;;;;;;;-0.02;100.00;100853.09;5055289;28;20048;-65